createdAt,value
2019-05-29T00:03:08.529Z,1015.17
2019-05-29T00:08:06.294Z,1015.18
2019-05-29T00:13:06.647Z,1015.23
2019-05-29T00:18:06.632Z,1015.39
2019-05-29T00:23:06.863Z,1015.44
2019-05-29T00:27:12.494Z,1015.48
2019-05-29T00:32:06.835Z,1015.5
2019-05-29T00:37:08.837Z,1015.59
2019-05-29T00:42:06.935Z,1015.63
2019-05-29T00:47:08.105Z,1015.73
2019-05-29T00:52:06.394Z,1015.83
2019-05-29T00:57:06.886Z,1015.82
2019-05-29T01:02:06.297Z,1015.92
2019-05-29T01:06:07.358Z,1015.97
2019-05-29T01:11:08.296Z,1016.03
2019-05-29T01:16:06.074Z,1015.97
2019-05-29T01:21:07.286Z,1016.06
2019-05-29T01:26:06.519Z,1016.06
2019-05-29T01:31:07.702Z,1016.2
2019-05-29T01:35:06.267Z,1016.29
2019-05-29T01:40:24.566Z,1016.32
2019-05-29T01:45:08.334Z,1016.39
2019-05-29T01:50:06.805Z,1016.4
2019-05-29T01:55:06.681Z,1016.39
2019-05-29T02:00:09.153Z,1016.52
2019-05-29T02:05:06.702Z,1016.65
2019-05-29T02:09:07.026Z,1016.62
2019-05-29T02:14:06.958Z,1016.68
2019-05-29T02:19:06.335Z,1016.77
2019-05-29T02:24:06.214Z,1016.98
2019-05-29T02:29:06.750Z,1017.04
2019-05-29T02:34:07.550Z,1017
2019-05-29T02:39:06.543Z,1017.02
2019-05-29T02:44:06.455Z,1017.19
2019-05-29T02:48:06.058Z,1017.22
2019-05-29T02:53:07.328Z,1017.44
2019-05-29T02:58:06.553Z,1017.49
2019-05-29T03:03:06.245Z,1017.62
2019-05-29T03:08:06.826Z,1017.77
2019-05-29T03:13:06.047Z,1017.82
2019-05-29T03:18:06.480Z,1017.99
2019-05-29T03:22:07.613Z,1018.13
2019-05-29T03:27:06.828Z,1018.15
2019-05-29T03:32:15.491Z,1018.3
2019-05-29T03:37:07.671Z,1018.35
2019-05-29T03:42:07.310Z,1018.39
2019-05-29T03:47:06.407Z,1018.47
2019-05-29T03:52:07.657Z,1018.62
2019-05-29T03:56:06.123Z,1018.54
2019-05-29T04:01:07.304Z,1018.6
2019-05-29T04:06:06.866Z,1018.71
2019-05-29T04:11:07.279Z,1018.8
2019-05-29T04:16:06.419Z,1018.9
2019-05-29T04:21:06.694Z,1018.96
2019-05-29T04:26:06.026Z,1019.03
2019-05-29T04:30:08.791Z,1019.14
2019-05-29T04:35:07.706Z,1019.21
2019-05-29T04:40:08.111Z,1019.3
2019-05-29T04:45:08.666Z,1019.45
2019-05-29T04:50:07.539Z,1019.41
2019-05-29T04:55:07.744Z,1019.59
2019-05-29T04:59:06.990Z,1019.57
2019-05-29T05:04:07.777Z,1019.74
2019-05-29T05:09:07.408Z,1019.78
2019-05-29T05:14:07.100Z,1019.89
2019-05-29T05:19:07.150Z,1020
2019-05-29T05:24:06.308Z,1020.16
2019-05-29T05:29:06.829Z,1020.25
2019-05-29T05:34:06.460Z,1020.32
2019-05-29T05:39:08.090Z,1020.38
2019-05-29T05:43:06.610Z,1020.45
2019-05-29T05:48:07.324Z,1020.45
2019-05-29T05:53:06.533Z,1020.65
2019-05-29T05:58:06.733Z,1020.66
2019-05-29T06:03:07.210Z,1020.74
2019-05-29T06:08:07.420Z,1020.86
2019-05-29T06:12:07.221Z,1020.91
2019-05-29T06:17:07.365Z,1020.95
2019-05-29T06:22:07.484Z,1021.09
2019-05-29T06:27:07.580Z,1021.04
2019-05-29T06:32:07.458Z,1021.15
2019-05-29T06:37:07.656Z,1021.16
2019-05-29T06:42:07.155Z,1021.16
2019-05-29T06:47:07.414Z,1021.24
2019-05-29T06:51:06.810Z,1021.32
2019-05-29T06:56:06.528Z,1021.38
2019-05-29T07:01:07.165Z,1021.41
2019-05-29T07:06:07.623Z,1021.46
2019-05-29T07:11:07.360Z,1021.45
2019-05-29T07:16:07.401Z,1021.51
2019-05-29T07:21:07.614Z,1021.5
2019-05-29T07:25:06.295Z,1021.49
2019-05-29T07:30:07.325Z,1021.58
2019-05-29T07:35:06.802Z,1021.66
2019-05-29T07:40:06.009Z,1021.72
2019-05-29T07:45:07.385Z,1021.83
2019-05-29T07:50:06.557Z,1021.88
2019-05-29T07:55:07.140Z,1021.92
2019-05-29T08:00:08.997Z,1021.89
2019-05-29T08:04:06.338Z,1022.1
2019-05-29T08:09:06.559Z,1022.09
2019-05-29T08:14:06.995Z,1022.15
2019-05-29T08:19:08.058Z,1022.06
2019-05-29T08:24:08.991Z,1022.06
2019-05-29T08:29:08.716Z,1022.13
2019-05-29T08:34:07.479Z,1022.18
2019-05-29T08:38:07.267Z,1022.22
2019-05-29T08:43:06.969Z,1022.24
2019-05-29T08:48:09.991Z,1022.29
2019-05-29T08:53:07.168Z,1022.23
2019-05-29T08:58:07.367Z,1022.3
2019-05-29T09:03:06.429Z,1022.24
2019-05-29T09:08:06.190Z,1022.31
2019-05-29T09:12:06.241Z,1022.32
2019-05-29T09:17:06.741Z,1022.45
2019-05-29T09:22:06.858Z,1022.4
2019-05-29T09:27:06.709Z,1022.51
2019-05-29T09:32:06.230Z,1022.49
2019-05-29T09:37:06.051Z,1022.58
2019-05-29T09:42:06.876Z,1022.51
2019-05-29T09:46:07.616Z,1022.59
2019-05-29T09:51:22.754Z,1022.66
2019-05-29T09:56:07.028Z,1022.6
2019-05-29T10:01:24.262Z,1022.7
2019-05-29T10:06:09.290Z,1022.65
2019-05-29T10:11:11.464Z,1022.67
2019-05-29T10:15:09.113Z,1022.73
2019-05-29T10:20:07.584Z,1022.66
2019-05-29T10:25:06.777Z,1022.7
2019-05-29T10:30:08.486Z,1022.67
2019-05-29T10:35:07.785Z,1022.59
2019-05-29T10:40:07.427Z,1022.64
2019-05-29T10:45:08.739Z,1022.58
2019-05-29T10:50:08.095Z,1022.69
2019-05-29T10:54:06.835Z,1022.65
2019-05-29T10:59:06.732Z,1022.6
2019-05-29T11:04:06.299Z,1022.7
2019-05-29T11:09:07.986Z,1022.55
2019-05-29T11:14:06.509Z,1022.7
2019-05-29T11:19:07.626Z,1022.63
2019-05-29T11:23:06.784Z,1022.61
2019-05-29T11:28:07.505Z,1022.71
2019-05-29T11:33:06.957Z,1022.69
2019-05-29T11:38:07.094Z,1022.66
2019-05-29T11:43:06.865Z,1022.64
2019-05-29T11:48:07.684Z,1022.65
2019-05-29T11:53:07.091Z,1022.61
2019-05-29T11:57:07.365Z,1022.71
2019-05-29T12:02:06.648Z,1022.58
2019-05-29T12:07:07.124Z,1022.58
2019-05-29T12:12:06.339Z,1022.6
2019-05-29T12:17:06.504Z,1022.52
2019-05-29T12:22:06.318Z,1022.61
2019-05-29T12:26:23.894Z,1022.61
2019-05-29T12:31:07.364Z,1022.61
2019-05-29T12:36:07.475Z,1022.67
2019-05-29T12:41:07.044Z,1022.62
2019-05-29T12:46:07.078Z,1022.68
2019-05-29T12:51:07.343Z,1022.57
2019-05-29T12:56:07.516Z,1022.52
2019-05-29T13:00:07.665Z,1022.58
2019-05-29T13:05:12.504Z,1022.54
2019-05-29T13:10:06.413Z,1022.69
2019-05-29T13:15:07.856Z,1022.63
2019-05-29T13:20:22.240Z,1022.65
2019-05-29T13:25:06.713Z,1022.6
2019-05-29T13:30:09.470Z,1022.5
2019-05-29T13:34:07.233Z,1022.55
2019-05-29T13:39:07.081Z,1022.51
2019-05-29T13:44:06.915Z,1022.57
2019-05-29T13:49:07.633Z,1022.59
2019-05-29T13:54:13.442Z,1022.56
2019-05-29T13:59:08.232Z,1022.74
2019-05-29T14:04:09.439Z,1022.73
2019-05-29T14:09:10.893Z,1022.72
2019-05-29T14:13:07.358Z,1022.74
2019-05-29T14:18:08.764Z,1022.82
2019-05-29T14:23:07.467Z,1022.81
2019-05-29T14:28:09.898Z,1022.89
2019-05-29T14:33:15.718Z,1022.84
2019-05-29T14:38:15.733Z,1022.82
2019-05-29T14:43:16.202Z,1022.76
2019-05-29T14:48:10.104Z,1022.7
2019-05-29T14:53:13.005Z,1022.85
2019-05-29T14:57:25.708Z,1022.85
2019-05-29T15:02:24.963Z,1022.84
2019-05-29T15:07:09.740Z,1022.86
2019-05-29T15:12:07.979Z,1022.77
2019-05-29T15:17:08.923Z,1022.88
2019-05-29T15:22:11.403Z,1022.81
2019-05-29T15:27:05.958Z,1022.88
2019-05-29T15:31:08.148Z,1022.81
2019-05-29T15:36:06.793Z,1022.91
2019-05-29T15:41:06.995Z,1022.93
2019-05-29T15:46:15.918Z,1022.92
2019-05-29T15:51:09.151Z,1023.13
2019-05-29T15:56:28.832Z,1023.15
2019-05-29T16:01:11.941Z,1023.15
2019-05-29T16:06:07.596Z,1023.1
2019-05-29T16:11:08.851Z,1023.12
2019-05-29T16:15:15.126Z,1023.12
2019-05-29T16:20:06.532Z,1023.15
2019-05-29T16:25:07.647Z,1023.32
2019-05-29T16:30:08.331Z,1023.24
2019-05-29T16:35:07.780Z,1023.29
2019-05-29T16:40:06.487Z,1023.41
2019-05-29T16:45:08.679Z,1023.46
2019-05-29T16:49:06.571Z,1023.4
2019-05-29T16:50:06.259Z,1023.4
2019-05-29T16:54:07.664Z,1023.52
2019-05-29T16:59:07.193Z,1023.54
2019-05-29T17:04:07.381Z,1023.61
2019-05-29T17:09:06.774Z,1023.68
2019-05-29T17:14:06.852Z,1023.69
2019-05-29T17:19:06.011Z,1023.79
2019-05-29T17:24:07.232Z,1023.82
2019-05-29T17:28:06.925Z,1023.88
2019-05-29T17:33:07.651Z,1023.89
2019-05-29T17:38:07.159Z,1024.01
2019-05-29T17:43:08.197Z,1023.99
2019-05-29T17:48:06.710Z,1024.02
2019-05-29T17:53:08.141Z,1024.08
2019-05-29T17:58:07.218Z,1024.11
2019-05-29T18:02:07.245Z,1024.15
2019-05-29T18:07:07.928Z,1024.2
2019-05-29T18:12:08.471Z,1024.23
2019-05-29T18:17:07.005Z,1024.27
2019-05-29T18:22:08.107Z,1024.29
2019-05-29T18:27:07.096Z,1024.36
2019-05-29T18:31:06.493Z,1024.44
2019-05-29T18:36:07.011Z,1024.47
2019-05-29T18:41:06.349Z,1024.55
2019-05-29T18:46:07.454Z,1024.64
2019-05-29T18:51:06.878Z,1024.64
2019-05-29T18:56:08.147Z,1024.7
2019-05-29T19:00:09.106Z,1024.71
2019-05-29T19:05:07.326Z,1024.84
2019-05-29T19:10:07.259Z,1024.86
2019-05-29T19:15:09.576Z,1024.96
2019-05-29T19:20:06.928Z,1025.01
2019-05-29T19:25:06.440Z,1025.05
2019-05-29T19:30:08.694Z,1025.12
2019-05-29T19:34:06.630Z,1025.22
2019-05-29T19:39:08.256Z,1025.33
2019-05-29T19:44:07.526Z,1025.32
2019-05-29T19:49:06.472Z,1025.47
2019-05-29T19:54:07.095Z,1025.46
2019-05-29T19:59:07.560Z,1025.47
2019-05-29T20:04:07.223Z,1025.49
2019-05-29T20:08:07.661Z,1025.5
2019-05-29T20:13:06.341Z,1025.63
2019-05-29T20:18:07.286Z,1025.72
2019-05-29T20:23:06.552Z,1025.88
2019-05-29T20:28:08.019Z,1025.83
2019-05-29T20:33:06.282Z,1025.84
2019-05-29T20:38:07.962Z,1025.97
2019-05-29T20:42:06.975Z,1026.01
2019-05-29T20:47:07.719Z,1026.15
2019-05-29T20:52:06.924Z,1026.12
2019-05-29T20:57:07.298Z,1026.16
2019-05-29T21:02:06.225Z,1026.19
2019-05-29T21:07:07.139Z,1026.18
2019-05-29T21:12:06.936Z,1026.2
2019-05-29T21:17:08.025Z,1026.24
2019-05-29T21:21:06.679Z,1026.3
2019-05-29T21:26:07.714Z,1026.22
2019-05-29T21:31:06.563Z,1026.28
2019-05-29T21:36:07.754Z,1026.33
2019-05-29T21:41:07.121Z,1026.39
2019-05-29T21:46:06.848Z,1026.43
2019-05-29T21:51:06.455Z,1026.41
2019-05-29T21:56:07.281Z,1026.42
2019-05-29T22:01:05.899Z,1026.43
2019-05-29T22:05:07.709Z,1026.47
2019-05-29T22:10:07.129Z,1026.53
2019-05-29T22:15:08.734Z,1026.54
2019-05-29T22:20:07.741Z,1026.5
2019-05-29T22:25:06.950Z,1026.59
2019-05-29T22:30:08.965Z,1026.62
2019-05-29T22:35:07.857Z,1026.55
2019-05-29T22:39:06.837Z,1026.59
2019-05-29T22:44:07.780Z,1026.6
2019-05-29T22:49:06.523Z,1026.59
2019-05-29T22:54:07.320Z,1026.66
2019-05-29T22:59:06.700Z,1026.64
2019-05-29T23:04:07.180Z,1026.67
2019-05-29T23:09:07.608Z,1026.59
2019-05-29T23:13:07.361Z,1026.62
2019-05-29T23:14:07.261Z,1026.62
2019-05-29T23:18:07.407Z,1026.53
2019-05-29T23:23:07.760Z,1026.54
2019-05-29T23:24:07.711Z,1026.54
2019-05-29T23:28:06.450Z,1026.57
2019-05-29T23:33:07.247Z,1026.56
2019-05-29T23:38:06.763Z,1026.54
2019-05-29T23:43:07.023Z,1026.49
2019-05-29T23:48:06.369Z,1026.51
2019-05-29T23:53:07.210Z,1026.51
2019-05-29T23:58:08.724Z,1026.46
